createdAt,value
2023-04-07T00:00:00.110Z,13.40
2023-04-07T00:02:29.299Z,11.87
2023-04-07T00:04:58.559Z,12.57
2023-04-07T00:07:26.483Z,13.67
2023-04-07T00:09:54.161Z,13.77
2023-04-07T00:12:21.929Z,15.00
2023-04-07T00:14:49.653Z,16.00
2023-04-07T00:17:17.404Z,18.23
2023-04-07T00:19:46.568Z,17.07
2023-04-07T00:22:14.375Z,16.77
2023-04-07T00:24:42.314Z,13.13
2023-04-07T00:27:10.092Z,13.57
2023-04-07T00:29:37.827Z,14.27
2023-04-07T00:32:05.826Z,14.03
2023-04-07T00:34:33.595Z,13.60
2023-04-07T00:37:02.683Z,13.93
2023-04-07T00:39:31.400Z,14.30
2023-04-07T00:41:59.165Z,13.07
2023-04-07T00:50:37.779Z,13.63
2023-04-07T00:53:07.620Z,12.80
2023-04-07T00:55:35.379Z,14.00
2023-04-07T00:58:05.014Z,13.80
2023-04-07T01:00:34.012Z,14.03
2023-04-07T01:03:09.175Z,14.80
2023-04-07T01:05:44.071Z,15.03
2023-04-07T01:08:18.747Z,14.40
2023-04-07T01:10:53.066Z,13.83
2023-04-07T01:13:28.104Z,14.50
2023-04-07T01:16:06.588Z,14.50
2023-04-07T01:18:42.143Z,14.07
2023-04-07T01:21:15.111Z,13.73
2023-04-07T01:24:02.345Z,14.13
2023-04-07T01:26:31.744Z,13.80
2023-04-07T01:29:20.422Z,12.90
2023-04-07T01:31:51.203Z,14.37
2023-04-07T01:34:20.735Z,14.13
2023-04-07T01:36:50.911Z,14.03
2023-04-07T01:39:19.674Z,14.43
2023-04-07T01:41:48.224Z,14.43
2023-04-07T01:44:16.936Z,13.93
2023-04-07T01:46:46.613Z,14.13
2023-04-07T01:49:15.988Z,14.50
2023-04-07T01:51:44.329Z,14.50
2023-04-07T01:54:12.215Z,15.23
2023-04-07T01:56:39.932Z,15.67
2023-04-07T01:59:08.181Z,16.00
2023-04-07T02:01:36.096Z,16.10
2023-04-07T02:04:13.743Z,16.37
2023-04-07T02:06:49.087Z,15.17
2023-04-07T02:09:22.414Z,16.23
2023-04-07T02:11:52.639Z,16.37
2023-04-07T02:14:24.350Z,16.87
2023-04-07T02:17:06.777Z,17.90
2023-04-07T02:19:36.164Z,17.30
2023-04-07T02:22:05.077Z,18.13
2023-04-07T02:24:32.788Z,18.27
2023-04-07T02:27:02.137Z,18.43
2023-04-07T02:29:29.965Z,18.87
2023-04-07T02:31:57.700Z,19.13
2023-04-07T02:34:25.700Z,20.13
2023-04-07T02:36:54.965Z,17.77
2023-04-07T02:39:22.739Z,19.57
2023-04-07T02:41:50.455Z,19.47
2023-04-07T02:44:18.141Z,20.37
2023-04-07T02:46:45.987Z,21.13
2023-04-07T02:49:13.739Z,19.80
2023-04-07T02:51:41.471Z,19.47
2023-04-07T02:54:10.729Z,21.40
2023-04-07T02:56:38.491Z,21.10
2023-04-07T02:59:06.445Z,22.97
2023-04-07T03:01:40.446Z,22.17
2023-04-07T03:04:08.899Z,22.97
2023-04-07T03:06:36.696Z,23.43
2023-04-07T03:09:11.720Z,23.97
2023-04-07T03:11:41.561Z,22.87
2023-04-07T03:14:09.791Z,24.20
2023-04-07T03:16:45.146Z,24.27
2023-04-07T03:19:14.642Z,24.07
2023-04-07T03:21:48.435Z,24.77
2023-04-07T03:24:18.358Z,23.77
2023-04-07T03:26:47.359Z,25.20
2023-04-07T03:29:41.381Z,23.53
2023-04-07T03:32:12.221Z,24.93
2023-04-07T03:34:40.546Z,25.00
2023-04-07T03:37:08.278Z,25.33
2023-04-07T03:39:41.055Z,25.33
2023-04-07T03:42:23.294Z,24.50
2023-04-07T03:44:54.710Z,26.33
2023-04-07T03:47:22.750Z,26.50
2023-04-07T03:49:56.251Z,25.90
2023-04-07T03:52:24.393Z,25.07
2023-04-07T03:54:58.295Z,25.57
2023-04-07T03:57:31.271Z,22.33
2023-04-07T03:59:59.093Z,23.97
2023-04-07T04:02:26.967Z,20.27
2023-04-07T04:04:57.506Z,19.93
2023-04-07T04:07:26.299Z,20.70
2023-04-07T04:09:56.130Z,19.60
2023-04-07T04:12:25.414Z,18.80
2023-04-07T04:15:09.146Z,19.47
2023-04-07T04:17:37.694Z,19.03
2023-04-07T04:20:07.985Z,18.97
2023-04-07T04:22:43.342Z,19.80
2023-04-07T04:25:11.333Z,19.53
2023-04-07T04:27:41.349Z,20.13
2023-04-07T04:30:18.585Z,18.93
2023-04-07T04:32:51.790Z,18.53
2023-04-07T04:35:26.026Z,19.13
2023-04-07T04:38:05.068Z,18.87
2023-04-07T04:40:33.444Z,20.83
2023-04-07T04:43:06.866Z,19.73
2023-04-07T04:45:36.824Z,20.17
2023-04-07T04:48:06.327Z,20.70
2023-04-07T04:50:34.264Z,21.10
2023-04-07T04:53:06.242Z,22.17
2023-04-07T04:55:34.042Z,20.50
2023-04-07T04:58:03.491Z,20.60
2023-04-07T05:00:45.587Z,18.57
2023-04-07T05:03:13.832Z,18.43
2023-04-07T05:05:48.524Z,17.90
2023-04-07T05:08:18.690Z,18.37
2023-04-07T05:10:47.817Z,19.33
2023-04-07T05:13:20.072Z,17.73
2023-04-07T05:15:48.060Z,17.33
2023-04-07T05:18:16.018Z,18.37
2023-04-07T05:20:44.102Z,18.73
2023-04-07T05:23:13.364Z,17.50
2023-04-07T05:25:41.906Z,16.93
2023-04-07T05:28:10.000Z,16.50
2023-04-07T05:30:40.423Z,15.57
2023-04-07T05:33:08.360Z,15.47
2023-04-07T05:35:49.639Z,14.87
2023-04-07T05:38:17.858Z,15.03
2023-04-07T05:40:48.223Z,14.53
2023-04-07T05:43:23.071Z,14.13
2023-04-07T05:45:53.628Z,14.27
2023-04-07T05:48:22.606Z,13.17
2023-04-07T05:50:51.321Z,12.13
2023-04-07T05:53:20.926Z,12.33
2023-04-07T05:55:48.726Z,11.97
2023-04-07T05:58:42.475Z,13.43
2023-04-07T06:01:12.732Z,12.37
2023-04-07T06:03:41.282Z,12.77
2023-04-07T06:06:21.985Z,12.17
2023-04-07T06:08:49.834Z,12.50
2023-04-07T06:11:17.708Z,12.23
2023-04-07T06:13:45.486Z,11.27
2023-04-07T06:16:14.973Z,11.33
2023-04-07T06:18:43.311Z,11.33
2023-04-07T06:21:11.148Z,10.40
2023-04-07T06:23:39.181Z,11.17
2023-04-07T06:26:11.178Z,10.77
2023-04-07T06:28:39.022Z,10.20
2023-04-07T06:31:07.384Z,10.50
2023-04-07T06:33:37.599Z,10.30
2023-04-07T06:36:05.718Z,9.00
2023-04-07T06:38:33.712Z,9.60
2023-04-07T06:41:01.460Z,10.20
2023-04-07T06:43:29.279Z,9.83
2023-04-07T06:46:02.559Z,9.20
2023-04-07T06:48:30.380Z,10.13
2023-04-07T06:50:59.478Z,10.73
2023-04-07T06:53:27.213Z,9.50
2023-04-07T06:56:04.319Z,9.80
2023-04-07T06:58:32.106Z,9.57
2023-04-07T07:00:59.915Z,9.00
2023-04-07T07:03:27.984Z,9.53
2023-04-07T07:05:57.416Z,8.23
2023-04-07T07:08:27.210Z,8.70
2023-04-07T07:10:55.295Z,8.97
2023-04-07T07:13:25.017Z,7.87
2023-04-07T07:15:53.166Z,7.77
2023-04-07T07:18:24.504Z,8.07
2023-04-07T07:20:52.352Z,8.03
2023-04-07T07:23:20.387Z,7.33
2023-04-07T07:25:50.054Z,6.77
2023-04-07T07:28:18.416Z,7.07
2023-04-07T07:30:46.222Z,7.40
2023-04-07T07:33:14.152Z,7.80
2023-04-07T07:35:42.245Z,7.17
2023-04-07T07:38:09.985Z,7.50
2023-04-07T07:40:40.155Z,7.20
2023-04-07T07:43:09.285Z,7.60
2023-04-07T07:45:37.035Z,7.33
2023-04-07T07:48:04.881Z,8.03
2023-04-07T07:50:32.821Z,7.73
2023-04-07T07:53:00.731Z,7.50
2023-04-07T07:55:30.602Z,7.53
2023-04-07T07:57:58.517Z,7.57
2023-04-07T08:00:28.504Z,8.67
2023-04-07T08:02:56.429Z,8.23
2023-04-07T08:05:24.421Z,7.97
2023-04-07T08:07:54.603Z,8.53
2023-04-07T08:10:24.811Z,9.43
2023-04-07T08:12:52.904Z,9.07
2023-04-07T08:15:20.800Z,8.83
2023-04-07T08:17:49.970Z,9.30
2023-04-07T08:20:17.759Z,9.30
2023-04-07T08:22:45.624Z,9.27
2023-04-07T08:25:13.468Z,8.47
2023-04-07T08:27:41.193Z,9.10
2023-04-07T08:30:09.432Z,8.87
2023-04-07T08:32:37.795Z,8.77
2023-04-07T08:35:07.760Z,8.77
2023-04-07T08:37:35.964Z,8.80
2023-04-07T08:40:04.802Z,8.80
2023-04-07T08:42:34.663Z,8.97
2023-04-07T08:45:05.051Z,8.47
2023-04-07T08:47:34.699Z,8.57
2023-04-07T08:50:04.680Z,9.03
2023-04-07T08:52:41.236Z,9.93
2023-04-07T08:55:10.814Z,9.43
2023-04-07T08:57:39.063Z,9.20
2023-04-07T09:00:08.185Z,9.27
2023-04-07T09:02:37.695Z,10.30
2023-04-07T09:05:07.979Z,10.53
2023-04-07T09:07:41.308Z,10.67
2023-04-07T09:10:10.040Z,9.80
2023-04-07T09:12:38.342Z,10.33
2023-04-07T09:15:08.710Z,10.17
2023-04-07T09:17:36.823Z,10.60
2023-04-07T09:20:05.535Z,10.67
2023-04-07T09:22:39.111Z,10.53
2023-04-07T09:25:15.587Z,10.43
2023-04-07T09:27:55.337Z,10.50
2023-04-07T09:30:23.755Z,10.23
2023-04-07T09:32:51.679Z,10.50
2023-04-07T09:35:19.694Z,10.57
2023-04-07T09:38:02.486Z,10.00
2023-04-07T09:40:30.568Z,8.73
2023-04-07T09:42:59.370Z,8.93
2023-04-07T09:45:34.569Z,8.93
2023-04-07T09:48:07.710Z,8.07
2023-04-07T09:50:36.918Z,8.50
2023-04-07T09:53:06.146Z,8.23
2023-04-07T09:55:34.994Z,8.23
2023-04-07T09:58:03.249Z,8.00
2023-04-07T10:00:31.174Z,8.20
2023-04-07T10:02:59.256Z,7.73
2023-04-07T10:05:28.669Z,9.13
2023-04-07T10:07:57.092Z,8.80
2023-04-07T10:10:28.765Z,9.27
2023-04-07T10:12:59.002Z,8.50
2023-04-07T10:15:26.839Z,8.90
2023-04-07T10:17:56.904Z,9.63
2023-04-07T10:20:25.490Z,9.63
2023-04-07T10:22:54.762Z,10.43
2023-04-07T10:25:25.504Z,11.40
2023-04-07T10:28:00.389Z,10.53
2023-04-07T10:30:31.639Z,11.20
2023-04-07T10:32:59.968Z,11.63
2023-04-07T10:35:28.434Z,11.67
2023-04-07T10:38:14.933Z,12.53
2023-04-07T10:40:43.736Z,11.80
2023-04-07T10:43:13.743Z,11.67
2023-04-07T10:45:59.690Z,11.60
2023-04-07T10:48:32.920Z,11.27
2023-04-07T10:51:15.445Z,11.63
2023-04-07T10:54:20.566Z,12.40
2023-04-07T10:57:13.342Z,13.13
2023-04-07T11:00:20.456Z,11.97
2023-04-07T11:02:48.522Z,10.83
2023-04-07T11:05:23.842Z,12.07
2023-04-07T11:07:55.489Z,12.57
2023-04-07T11:10:23.417Z,12.30
2023-04-07T11:13:06.154Z,11.90
2023-04-07T11:15:38.614Z,11.43
2023-04-07T11:18:18.922Z,12.20
2023-04-07T11:20:49.105Z,12.27
2023-04-07T11:23:18.328Z,11.80
2023-04-07T11:25:47.557Z,12.47
2023-04-07T11:28:15.928Z,12.33
2023-04-07T11:30:51.736Z,12.60
2023-04-07T11:33:22.173Z,11.90
2023-04-07T11:35:51.965Z,11.50
2023-04-07T11:38:21.027Z,11.87
2023-04-07T11:40:48.845Z,11.93
2023-04-07T11:43:17.932Z,11.63
2023-04-07T11:45:45.964Z,12.50
2023-04-07T11:48:28.837Z,11.33
2023-04-07T11:50:56.839Z,11.67
2023-04-07T11:53:28.808Z,12.53
2023-04-07T11:56:09.510Z,13.10
2023-04-07T11:58:38.693Z,12.53
2023-04-07T12:01:09.085Z,12.10
2023-04-07T12:03:39.348Z,13.30
2023-04-07T12:06:07.621Z,13.20
2023-04-07T12:08:39.803Z,13.57
2023-04-07T12:11:08.049Z,12.37
2023-04-07T12:13:36.099Z,13.07
2023-04-07T12:16:04.332Z,12.47
2023-04-07T12:18:32.508Z,12.73
2023-04-07T12:21:01.957Z,13.00
2023-04-07T12:23:29.785Z,12.03
2023-04-07T12:25:57.514Z,12.57
2023-04-07T12:28:25.325Z,12.20
2023-04-07T12:30:53.163Z,10.67
2023-04-07T12:33:21.292Z,10.30
2023-04-07T12:35:49.194Z,11.17
2023-04-07T12:38:18.413Z,11.10
2023-04-07T12:40:46.340Z,11.30
2023-04-07T12:43:14.079Z,10.60
2023-04-07T12:45:41.932Z,9.90
2023-04-07T12:48:09.743Z,10.23
2023-04-07T12:50:37.862Z,9.73
2023-04-07T12:53:05.925Z,10.53
2023-04-07T12:55:35.682Z,10.83
2023-04-07T12:58:03.404Z,11.83
2023-04-07T13:00:31.571Z,11.30
2023-04-07T13:02:59.541Z,11.50
2023-04-07T13:05:27.444Z,11.80
2023-04-07T13:07:55.883Z,12.40
2023-04-07T13:10:24.073Z,12.60
2023-04-07T13:12:53.277Z,11.67
2023-04-07T13:15:24.611Z,10.63
2023-04-07T13:17:52.407Z,9.60
2023-04-07T13:20:20.982Z,9.83
2023-04-07T13:22:57.648Z,9.93
2023-04-07T13:25:33.898Z,10.07
2023-04-07T13:28:03.036Z,9.40
2023-04-07T13:30:30.952Z,8.73
2023-04-07T13:32:58.959Z,11.37
2023-04-07T13:35:26.920Z,10.37
2023-04-07T13:37:55.396Z,11.20
2023-04-07T13:40:23.596Z,12.80
2023-04-07T13:42:51.384Z,10.50
2023-04-07T13:45:20.625Z,12.77
2023-04-07T13:47:48.395Z,10.93
2023-04-07T13:50:16.300Z,10.77
2023-04-07T13:52:44.172Z,10.53
2023-04-07T13:55:11.886Z,9.83
2023-04-07T13:57:39.671Z,10.23
2023-04-07T14:00:09.119Z,8.73
2023-04-07T14:02:38.517Z,9.30
2023-04-07T14:05:07.058Z,9.97
2023-04-07T14:07:34.809Z,8.97
2023-04-07T14:10:02.547Z,10.30
2023-04-07T14:12:30.242Z,10.43
2023-04-07T14:14:58.011Z,10.20
2023-04-07T14:17:25.994Z,10.20
2023-04-07T14:19:55.295Z,10.00
2023-04-07T14:22:23.160Z,11.00
2023-04-07T14:24:51.471Z,9.67
2023-04-07T14:27:20.989Z,10.30
2023-04-07T14:29:49.133Z,9.70
2023-04-07T14:32:17.888Z,10.00
2023-04-07T14:34:48.009Z,11.63
2023-04-07T14:37:20.054Z,12.30
2023-04-07T14:40:01.396Z,10.13
2023-04-07T14:42:32.776Z,9.33
2023-04-07T14:45:01.821Z,10.07
2023-04-07T14:47:30.060Z,10.53
2023-04-07T14:50:00.202Z,11.93
2023-04-07T14:52:29.939Z,10.37
2023-04-07T14:55:00.064Z,10.20
2023-04-07T14:57:28.166Z,10.37
2023-04-07T14:59:55.995Z,9.47
2023-04-07T15:02:23.923Z,10.27
2023-04-07T15:04:51.765Z,11.07
2023-04-07T15:07:19.601Z,10.30
2023-04-07T15:09:49.388Z,10.80
2023-04-07T15:12:17.530Z,11.00
2023-04-07T15:14:45.908Z,10.70
2023-04-07T15:17:23.651Z,11.87
2023-04-07T15:19:58.271Z,11.87
2023-04-07T15:22:26.417Z,13.00
2023-04-07T15:24:55.647Z,12.63
2023-04-07T15:27:26.675Z,15.27
2023-04-07T15:29:54.392Z,20.33
2023-04-07T15:32:22.096Z,19.03
2023-04-07T15:34:50.637Z,14.00
2023-04-07T15:37:19.293Z,13.57
2023-04-07T15:39:47.144Z,12.80
2023-04-07T15:42:16.307Z,12.30
2023-04-07T15:44:44.522Z,12.33
2023-04-07T15:47:12.512Z,13.33
2023-04-07T15:49:41.358Z,12.70
2023-04-07T15:52:09.355Z,11.97
2023-04-07T15:54:37.130Z,11.27
2023-04-07T15:57:04.894Z,11.93
2023-04-07T15:59:36.034Z,11.10
2023-04-07T16:02:04.024Z,11.53
2023-04-07T16:04:31.965Z,10.97
2023-04-07T16:06:59.662Z,11.27
2023-04-07T16:09:28.571Z,10.27
2023-04-07T16:11:56.320Z,10.13
2023-04-07T16:14:24.192Z,8.43
2023-04-07T16:16:58.507Z,10.00
2023-04-07T16:19:27.114Z,9.60
2023-04-07T16:21:55.860Z,9.20
2023-04-07T16:24:23.755Z,10.70
2023-04-07T16:26:52.407Z,10.17
2023-04-07T16:29:20.961Z,9.93
2023-04-07T16:31:48.867Z,11.03
2023-04-07T16:34:18.028Z,8.27
2023-04-07T16:36:45.902Z,8.00
2023-04-07T16:39:13.664Z,8.70
2023-04-07T16:41:41.449Z,8.30
2023-04-07T16:44:09.176Z,8.55
2023-04-07T16:46:37.486Z,8.57
2023-04-07T16:49:05.525Z,8.93
2023-04-07T16:51:34.643Z,8.80
2023-04-07T16:54:02.360Z,9.50
2023-04-07T16:56:30.112Z,9.93
2023-04-07T16:58:57.901Z,8.93
2023-04-07T17:01:25.732Z,9.50
2023-04-07T17:03:53.722Z,9.30
2023-04-07T17:06:21.963Z,9.33
2023-04-07T17:08:51.089Z,9.07
2023-04-07T17:11:18.781Z,9.13
2023-04-07T17:13:47.800Z,10.20
2023-04-07T17:16:15.920Z,9.73
2023-04-07T17:18:43.812Z,9.70
2023-04-07T17:21:11.685Z,10.23
2023-04-07T17:23:39.444Z,9.73
2023-04-07T17:26:08.547Z,9.67
2023-04-07T17:28:36.233Z,9.60
2023-04-07T17:31:03.979Z,9.80
2023-04-07T17:33:31.765Z,9.03
2023-04-07T17:36:02.044Z,9.90
2023-04-07T17:38:29.837Z,10.37
2023-04-07T17:40:59.122Z,10.90
2023-04-07T17:43:28.556Z,10.60
2023-04-07T17:45:56.449Z,11.10
2023-04-07T17:48:24.542Z,10.63
2023-04-07T17:50:52.403Z,10.47
2023-04-07T17:53:20.569Z,11.17
2023-04-07T17:55:48.348Z,10.80
2023-04-07T17:58:16.105Z,10.13
2023-04-07T18:00:45.323Z,10.10
2023-04-07T18:03:14.497Z,10.80
2023-04-07T18:05:44.902Z,11.37
2023-04-07T18:08:12.845Z,11.53
2023-04-07T18:10:40.902Z,11.23
2023-04-07T18:13:08.673Z,11.77
2023-04-07T18:15:36.622Z,13.03
2023-04-07T18:18:06.036Z,13.13
2023-04-07T18:20:33.830Z,14.40
2023-04-07T18:23:02.168Z,14.17
2023-04-07T18:25:30.224Z,15.77
2023-04-07T18:27:58.788Z,15.10
2023-04-07T18:30:27.262Z,16.93
2023-04-07T18:32:55.272Z,15.77
2023-04-07T18:35:25.420Z,15.87
2023-04-07T18:37:53.705Z,17.03
2023-04-07T18:40:21.770Z,16.63
2023-04-07T18:42:49.722Z,17.40
2023-04-07T18:45:17.666Z,17.73
2023-04-07T18:47:45.505Z,18.77
2023-04-07T18:50:13.324Z,19.63
2023-04-07T18:52:42.907Z,17.67
2023-04-07T18:55:11.256Z,18.53
2023-04-07T18:57:39.324Z,19.40
2023-04-07T19:00:08.714Z,21.77
2023-04-07T19:02:38.701Z,20.50
2023-04-07T19:05:06.923Z,20.40
2023-04-07T19:07:34.846Z,19.60
2023-04-07T19:10:04.226Z,19.27
2023-04-07T19:12:31.944Z,19.37
2023-04-07T19:14:59.757Z,18.73
2023-04-07T19:17:27.967Z,18.70
2023-04-07T19:19:55.870Z,21.00
2023-04-07T19:22:23.597Z,19.30
2023-04-07T19:24:51.720Z,17.93
2023-04-07T19:27:20.850Z,19.03
2023-04-07T19:29:48.697Z,20.63
2023-04-07T19:32:16.490Z,19.00
2023-04-07T19:34:44.422Z,16.27
2023-04-07T19:37:12.217Z,15.03
2023-04-07T19:39:40.282Z,12.80
2023-04-07T19:42:09.258Z,13.03
2023-04-07T19:44:38.388Z,12.80
2023-04-07T19:47:06.982Z,12.83
2023-04-07T19:49:34.732Z,13.07
2023-04-07T19:52:02.569Z,12.87
2023-04-07T19:54:30.361Z,13.00
2023-04-07T19:56:58.200Z,13.37
2023-04-07T19:59:25.945Z,13.40
2023-04-07T20:01:55.486Z,13.47
2023-04-07T20:04:23.312Z,11.77
2023-04-07T20:06:51.113Z,12.83
2023-04-07T20:09:20.469Z,13.60
2023-04-07T20:11:48.219Z,13.83
2023-04-07T20:14:16.041Z,13.87
2023-04-07T20:16:43.881Z,14.47
2023-04-07T20:19:13.172Z,13.77
2023-04-07T20:21:41.529Z,13.43
2023-04-07T20:24:09.431Z,14.77
2023-04-07T20:26:37.228Z,13.53
2023-04-07T20:29:05.014Z,13.50
2023-04-07T20:31:32.868Z,13.70
2023-04-07T20:34:00.683Z,14.40
2023-04-07T20:36:29.976Z,15.33
2023-04-07T20:38:58.617Z,13.87
2023-04-07T20:41:26.631Z,14.70
2023-04-07T20:43:55.013Z,14.80
2023-04-07T20:46:23.209Z,14.90
2023-04-07T20:48:51.150Z,14.90
2023-04-07T20:51:19.138Z,14.40
2023-04-07T20:53:48.313Z,14.47
2023-04-07T20:56:16.375Z,15.30
2023-04-07T20:58:44.207Z,16.60
2023-04-07T21:01:12.040Z,16.93
2023-04-07T21:03:40.008Z,16.07
2023-04-07T21:06:08.634Z,16.10
2023-04-07T21:08:36.452Z,15.83
2023-04-07T21:11:05.686Z,16.57
2023-04-07T21:13:33.466Z,15.83
2023-04-07T21:16:03.225Z,15.97
2023-04-07T21:18:31.093Z,17.10
2023-04-07T21:21:01.946Z,15.87
2023-04-07T21:23:31.240Z,16.77
2023-04-07T21:26:02.644Z,17.13
2023-04-07T21:28:31.775Z,16.17
2023-04-07T21:30:59.683Z,16.30
2023-04-07T21:33:27.758Z,16.50
2023-04-07T21:35:56.173Z,16.53
2023-04-07T21:38:23.937Z,17.07
2023-04-07T21:40:51.701Z,17.33
2023-04-07T21:43:19.627Z,17.53
2023-04-07T21:45:48.681Z,16.80
2023-04-07T21:48:20.729Z,16.87
2023-04-07T21:50:48.430Z,17.33
2023-04-07T21:53:16.199Z,16.63
2023-04-07T21:55:44.036Z,18.53
2023-04-07T21:58:11.949Z,18.13
2023-04-07T22:00:39.700Z,17.93
2023-04-07T22:03:09.153Z,17.53
2023-04-07T22:05:37.073Z,17.90
2023-04-07T22:08:04.790Z,17.53
2023-04-07T22:10:32.636Z,17.07
2023-04-07T22:13:00.366Z,17.60
2023-04-07T22:15:28.082Z,17.73
2023-04-07T22:17:56.735Z,18.23
2023-04-07T22:20:27.135Z,19.30
2023-04-07T22:22:57.452Z,17.87
2023-04-07T22:25:26.009Z,17.27
2023-04-07T22:27:53.936Z,17.97
2023-04-07T22:30:24.325Z,17.73
2023-04-07T22:32:52.399Z,17.70
2023-04-07T22:35:20.359Z,18.03
2023-04-07T22:37:49.507Z,17.17
2023-04-07T22:40:17.492Z,18.03
2023-04-07T22:42:45.349Z,18.90
2023-04-07T22:45:13.029Z,17.57
2023-04-07T22:47:40.794Z,17.30
2023-04-07T22:50:09.166Z,16.77
2023-04-07T22:52:36.952Z,17.20
2023-04-07T22:55:07.170Z,17.63
2023-04-07T22:57:34.987Z,18.40
2023-04-07T23:00:02.731Z,17.57
2023-04-07T23:02:30.554Z,17.63
2023-04-07T23:04:58.379Z,17.40
2023-04-07T23:07:26.183Z,16.67
2023-04-07T23:09:53.924Z,16.77
2023-04-07T23:12:22.972Z,16.40
2023-04-07T23:14:50.696Z,16.40
2023-04-07T23:17:18.453Z,18.83
2023-04-07T23:19:46.787Z,17.53
2023-04-07T23:22:14.528Z,18.50
2023-04-07T23:24:42.681Z,18.27
2023-04-07T23:27:10.439Z,19.63
2023-04-07T23:29:39.540Z,20.43
2023-04-07T23:32:07.606Z,19.40
2023-04-07T23:34:35.543Z,19.47
2023-04-07T23:37:03.325Z,18.83
2023-04-07T23:39:31.274Z,21.50
2023-04-07T23:41:59.044Z,21.80
2023-04-07T23:44:26.838Z,21.40
2023-04-07T23:46:56.254Z,19.53
2023-04-07T23:49:24.015Z,20.10
2023-04-07T23:51:52.331Z,19.47
2023-04-07T23:54:20.122Z,18.77
2023-04-07T23:56:47.932Z,18.33
2023-04-07T23:59:15.680Z,18.47
